Terminal Aerodrome Forecast
Issued by NWS Duluth, MN

Home | Current Version | Previous Version | Text Only | Print | Product List | Glossary On
Versions: 1 2 3 4 5 6 7 8 9 10 11 12 13 14 15 16 17 18 19 20 21
865
FTUS43 KDLH 211337 AAA
TAFINL
TAF AMD
KINL 211337Z 2114/2212 11004KT 3SM BR OVC003
      TEMPO 2114/2116 1SM -DZSN BR OVC002
     FM211800 09004KT 5SM BR OVC005
     FM212300 06003KT 3SM -DZ BR OVC004
     FM220600 03003KT 2SM -DZ OVC003=

USA.gov is the U.S. government's official web portal to all federal, state and local government web resources and services.